Clara City, Minnesota
Current Conditions -  °F | °C
As of 9:14 AM on Monday 24 Nov 2014 (Local Time) from KMVE Reporting Station
Light Snow Light Snow  
Wind Chill: -6°   Ceiling: 2000
Heat Index: 14°   Visibility: 3mi
Dew Point: 12°   Wind: 26mph
Humidity: 93%   Direction: 360°N
Pressure: 29.61"   Gusts: 32mph
Location:  44.95°N, 95.37°W
Report Text: KMVE 241514Z AUTO 36023G28KT 3SM -SN SCT015 BKN020 OVC042 M10/M11 A2961 RMK AO2
Loading
Personal Weather Stations






























Interactive Weather Map New forecast layout! Learn more

10-Day Weather Forecast

Advertisements
Track Severe Weather on mobile